Terminal Aerodrome Forecast
Issued by NWS Bismarck, ND

Home | Current Version | Previous Version | Text Only | Print | Product List | Glossary Off
Versions: 1 2 3 4 5 6 7 8 9 10 11 12 13 14 15 16 17

000
FTUS43 KBIS 251100
TAFISN
TAF
KISN 251127Z 2512/2612 34013G18KT P6SM OVC015
     FM251600 24007KT P6SM SCT025 BKN150
     FM251900 21009KT P6SM BKN080 OVC110
     FM260000 26009KT P6SM SCT011 OVC100
     FM260500 28011KT P6SM FEW015 BKN130=

USA.gov is the U.S. government's official web portal to all federal, state and local government web resources and services.